Time;durP1;ratioP1;P1;durP2;ratioP2;P2;SDS_P1;SDS_P2;PMS_P1;PMS_P2;Temp;Humidity;BMP_temperature;BMP_pressure;BME280_temperature;BME280_humidity;BME280_pressure;Samples;Min_cycle;Max_cycle;Signal;HPM_P1;HPM_P2
2022/12/13 00:01:56;;;;;;;39.25;12.40;;;8.50;99.90;;;;;;4849204;29;20034;-94
2022/12/13 00:04:24;;;;;;;19.05;11.80;;;8.60;99.90;;;;;;4831224;29;20038;-92
2022/12/13 00:07:01;;;;;;;20.45;11.30;;;8.60;99.90;;;;;;4848435;29;20112;-94
2022/12/13 00:09:28;;;;;;;20.83;11.38;;;8.60;99.90;;;;;;4847225;29;20225;-93
2022/12/13 00:11:55;;;;;;;20.10;12.38;;;8.70;99.90;;;;;;4831365;29;20026;-93
2022/12/13 00:14:22;;;;;;;23.70;11.13;;;8.60;99.90;;;;;;4846647;29;20033;-94
2022/12/13 00:16:49;;;;;;;12.98;9.43;;;8.50;99.90;;;;;;4830984;29;20034;-93
2022/12/13 00:19:17;;;;;;;14.68;9.07;;;8.60;99.90;;;;;;4846228;29;20030;-93
2022/12/13 00:21:44;;;;;;;16.35;10.00;;;8.60;99.90;;;;;;4846302;29;20113;-94
2022/12/13 00:24:11;;;;;;;18.55;9.27;;;8.60;99.90;;;;;;4830582;29;20048;-92
2022/12/13 00:26:38;;;;;;;14.35;8.27;;;8.60;99.90;;;;;;4847184;29;20041;-94
2022/12/13 00:29:07;;;;;;;17.60;9.02;;;8.60;99.90;;;;;;4848719;29;20457;-95
2022/12/13 00:31:35;;;;;;;16.33;9.02;;;8.60;99.90;;;;;;4832703;29;20030;-94
2022/12/13 00:34:02;;;;;;;15.00;9.07;;;8.60;99.90;;;;;;4845873;29;20044;-93
2022/12/13 00:36:28;;;;;;;12.30;7.95;;;8.60;99.90;;;;;;4846405;29;20054;-94
2022/12/13 00:39:01;;;;;;;13.43;8.30;;;8.60;99.90;;;;;;4849379;29;20033;-93
2022/12/13 00:41:34;;;;;;;12.98;7.85;;;8.60;99.90;;;;;;4851919;29;20026;-93
2022/12/13 00:44:06;;;;;;;13.55;8.85;;;8.60;99.90;;;;;;4851004;29;20075;-93
2022/12/13 00:46:33;;;;;;;15.07;9.35;;;8.50;99.90;;;;;;4850219;29;20033;-93
2022/12/13 00:49:00;;;;;;;15.05;8.35;;;8.40;99.90;;;;;;4847658;29;20030;-94
2022/12/13 00:51:29;;;;;;;10.57;8.20;;;8.30;99.90;;;;;;4830933;29;20477;-93
2022/12/13 00:53:56;;;;;;;15.30;8.40;;;8.40;99.90;;;;;;4845926;29;20113;-93
2022/12/13 00:56:26;;;;;;;15.00;9.57;;;8.40;99.90;;;;;;4845315;29;20124;-93
2022/12/13 00:58:54;;;;;;;11.48;8.15;;;8.40;99.90;;;;;;4845093;29;20022;-93
2022/12/13 01:01:35;;;;;;;13.25;7.53;;;8.40;99.90;;;;;;4845396;29;20065;-92
2022/12/13 01:04:05;;;;;;;11.23;7.50;;;8.40;99.90;;;;;;4845974;29;20141;-94
2022/12/13 01:06:44;;;;;;;15.73;8.27;;;8.50;99.90;;;;;;4845589;29;20030;-93
2022/12/13 01:09:20;;;;;;;11.80;8.85;;;8.50;99.90;;;;;;4846358;29;20061;-93
2022/12/13 01:11:48;;;;;;;14.75;8.15;;;8.60;99.90;;;;;;4844710;29;20042;-93
2022/12/13 01:14:15;;;;;;;11.38;8.45;;;8.60;99.90;;;;;;4845031;29;20046;-93
2022/12/13 01:16:42;;;;;;;14.27;9.65;;;8.60;99.90;;;;;;4852242;29;20038;-92
2022/12/13 01:19:08;;;;;;;12.55;9.18;;;8.70;99.90;;;;;;4867347;29;20061;-93
2022/12/13 01:21:35;;;;;;;13.32;8.32;;;8.70;99.90;;;;;;4846908;29;20038;-93
2022/12/13 01:24:04;;;;;;;12.90;9.60;;;8.80;99.90;;;;;;4845334;29;20030;-93
2022/12/13 01:26:32;;;;;;;15.25;10.10;;;8.80;99.90;;;;;;4845065;29;20564;-93
2022/12/13 01:28:59;;;;;;;13.55;9.13;;;8.80;99.90;;;;;;4829811;29;20072;-93
2022/12/13 01:31:26;;;;;;;21.08;9.50;;;8.90;99.90;;;;;;4845390;29;20040;-94
2022/12/13 01:33:54;;;;;;;15.13;9.48;;;8.90;99.90;;;;;;4846008;29;20050;-94
2022/12/13 01:36:22;;;;;;;11.90;8.68;;;8.90;99.90;;;;;;4845553;29;20484;-93
2022/12/13 01:38:48;;;;;;;17.92;10.05;;;9.00;99.90;;;;;;4845746;29;20034;-94
2022/12/13 01:41:18;;;;;;;11.45;8.40;;;9.00;99.90;;;;;;4840801;29;20034;-93
2022/12/13 01:43:48;;;;;;;12.27;8.95;;;9.00;99.90;;;;;;4845300;29;20048;-94
2022/12/13 01:46:16;;;;;;;10.00;8.80;;;9.00;99.90;;;;;;4830362;29;20030;-94
2022/12/13 01:49:05;;;;;;;11.55;9.60;;;9.10;99.90;;;;;;4845867;29;20126;-93
2022/12/13 01:52:05;;;;;;;17.83;9.95;;;9.20;99.90;;;;;;4824957;29;20042;-94
2022/12/13 01:54:39;;;;;;;14.45;9.70;;;9.20;99.90;;;;;;4792639;29;20087;-95
2022/12/13 01:57:12;;;;;;;16.15;10.02;;;9.20;99.90;;;;;;4778065;29;20059;-93
2022/12/13 01:59:40;;;;;;;13.32;9.88;;;9.10;99.90;;;;;;4777637;29;20106;-93
2022/12/13 02:02:10;;;;;;;13.77;9.13;;;9.10;99.90;;;;;;4777449;29;20125;-93
2022/12/13 02:04:44;;;;;;;10.57;8.48;;;9.10;99.90;;;;;;4777295;29;20046;-94
2022/12/13 02:07:15;;;;;;;12.95;9.25;;;9.10;99.90;;;;;;4777601;29;20050;-93
2022/12/13 02:09:44;;;;;;;9.32;8.43;;;9.10;99.90;;;;;;4779070;29;20034;-94
2022/12/13 02:12:12;;;;;;;15.77;8.60;;;9.10;99.90;;;;;;4779403;29;20073;-93
2022/12/13 02:14:40;;;;;;;11.45;9.02;;;9.10;99.90;;;;;;4779025;29;20045;-93
2022/12/13 02:17:21;;;;;;;10.85;8.48;;;9.00;99.90;;;;;;4779246;29;20034;-94
2022/12/13 02:20:20;;;;;;;9.80;8.68;;;9.00;99.90;;;;;;4778507;29;20042;-94
2022/12/13 02:22:58;;;;;;;11.95;8.32;;;8.90;99.90;;;;;;4793974;29;20080;-93
2022/12/13 02:25:44;;;;;;;9.05;8.18;;;8.90;99.90;;;;;;4834261;29;20038;-93
2022/12/13 02:28:58;;;;;;;11.65;8.35;;;8.90;99.90;;;;;;4827533;29;20046;-93
2022/12/13 02:31:41;;;;;;;8.73;7.85;;;8.90;99.90;;;;;;4759782;30;20035;-94
2022/12/13 02:34:21;;;;;;;11.57;8.13;;;8.80;99.90;;;;;;4759678;30;20042;-93
2022/12/13 02:36:56;;;;;;;8.80;7.85;;;8.80;99.90;;;;;;4760275;30;20036;-94
2022/12/13 02:39:38;;;;;;;9.10;8.20;;;8.70;99.90;;;;;;4759871;30;20035;-94
2022/12/13 02:42:32;;;;;;;9.50;8.13;;;8.80;99.90;;;;;;4759856;30;20561;-94
2022/12/13 02:45:16;;;;;;;10.77;7.90;;;8.80;99.90;;;;;;4760530;30;20031;-93
2022/12/13 02:47:44;;;;;;;13.20;7.88;;;8.70;99.90;;;;;;4759596;30;20533;-93
2022/12/13 02:50:13;;;;;;;11.90;8.00;;;8.70;99.90;;;;;;4774510;30;20027;-94
2022/12/13 02:52:45;;;;;;;13.20;7.20;;;8.70;99.90;;;;;;4774547;30;20035;-93
2022/12/13 02:55:14;;;;;;;9.27;8.13;;;8.70;99.90;;;;;;4759653;30;20054;-93
2022/12/13 02:57:43;;;;;;;11.02;8.70;;;8.70;99.90;;;;;;4777452;29;20079;-93
2022/12/13 03:00:18;;;;;;;13.93;10.90;;;8.60;99.90;;;;;;4775533;30;20043;-94
2022/12/13 03:03:32;;;;;;;14.95;10.65;;;8.60;99.90;;;;;;4759235;30;20054;-94
2022/12/13 03:09:15;;;;;;;13.00;10.20;;;8.60;99.90;;;;;;4823494;29;20062;-94
2022/12/13 03:15:16;;;;;;;15.60;9.55;;;8.50;99.90;;;;;;4825769;29;20057;-92
2022/12/13 03:17:58;;;;;;;12.90;9.15;;;8.50;99.90;;;;;;4824904;29;20038;-93
2022/12/13 03:20:34;;;;;;;12.02;9.48;;;8.50;99.90;;;;;;4824875;29;20038;-93
2022/12/13 03:23:00;;;;;;;12.98;9.65;;;8.50;99.90;;;;;;4805975;29;20047;-93
2022/12/13 03:25:30;;;;;;;16.50;10.15;;;8.50;99.90;;;;;;4777333;29;20034;-93
2022/12/13 03:27:57;;;;;;;13.77;10.00;;;8.50;99.90;;;;;;4798285;29;20087;-93
2022/12/13 03:30:24;;;;;;;12.57;9.13;;;8.40;99.90;;;;;;4800101;29;20054;-93
2022/12/13 03:32:53;;;;;;;11.02;9.07;;;8.50;99.90;;;;;;4812096;29;20071;-94
2022/12/13 03:35:20;;;;;;;13.52;8.68;;;8.50;99.90;;;;;;4812609;29;20444;-93
2022/12/13 03:37:48;;;;;;;11.25;8.40;;;8.50;99.90;;;;;;4814149;29;20038;-94
2022/12/13 03:40:14;;;;;;;13.13;8.60;;;8.50;99.90;;;;;;4812253;29;20045;-94
2022/12/13 03:42:41;;;;;;;11.82;8.45;;;8.50;99.90;;;;;;4809042;29;20042;-93
2022/12/13 03:45:08;;;;;;;12.20;8.30;;;8.50;99.90;;;;;;4808637;29;20029;-94
2022/12/13 03:47:35;;;;;;;12.60;8.45;;;8.60;99.90;;;;;;4808740;29;20042;-94
2022/12/13 03:50:02;;;;;;;9.88;7.82;;;8.60;99.90;;;;;;4809689;29;20121;-94
2022/12/13 03:52:32;;;;;;;11.98;8.20;;;8.60;99.90;;;;;;4815659;29;20028;-93
2022/12/13 03:55:00;;;;;;;9.18;8.32;;;8.60;99.90;;;;;;4811153;29;20074;-93
2022/12/13 03:57:28;;;;;;;10.52;8.20;;;8.60;99.90;;;;;;4794475;29;20035;-94
2022/12/13 03:59:59;;;;;;;8.90;7.47;;;8.60;99.90;;;;;;4822774;29;20042;-94
2022/12/13 04:02:29;;;;;;;10.77;7.72;;;8.60;99.90;;;;;;4848138;29;20034;-94
2022/12/13 04:04:56;;;;;;;9.20;7.70;;;8.60;99.90;;;;;;4839759;29;20048;-93
2022/12/13 04:07:23;;;;;;;12.00;8.30;;;8.60;99.90;;;;;;4853884;29;20037;-94
2022/12/13 04:09:49;;;;;;;8.85;7.45;;;8.60;99.90;;;;;;4847372;29;20068;-94
2022/12/13 04:15:01;;;;;;;8.75;7.82;;;8.60;99.90;;;;;;4842458;29;20030;-93
2022/12/13 04:17:28;;;;;;;10.73;8.60;;;8.70;99.90;;;;;;4842578;29;20560;-93
2022/12/13 04:19:55;;;;;;;9.82;8.10;;;8.60;99.90;;;;;;4842547;29;20030;-93
2022/12/13 04:22:22;;;;;;;11.75;8.38;;;8.60;99.90;;;;;;4842139;29;20376;-93
2022/12/13 04:25:02;;;;;;;8.90;8.00;;;8.60;99.90;;;;;;4843285;29;20038;-94
2022/12/13 04:27:29;;;;;;;12.30;8.13;;;8.60;99.90;;;;;;4842157;29;20061;-93
2022/12/13 04:29:56;;;;;;;9.10;8.10;;;8.50;99.90;;;;;;4842308;29;20397;-95
2022/12/13 04:32:23;;;;;;;12.73;8.90;;;8.60;99.90;;;;;;4842382;29;20034;-93
2022/12/13 04:34:49;;;;;;;8.95;8.05;;;8.50;99.90;;;;;;4842753;29;20488;-94
2022/12/13 04:37:16;;;;;;;14.10;8.35;;;8.50;99.90;;;;;;4854045;29;20030;-94
2022/12/13 04:39:42;;;;;;;10.63;8.30;;;8.50;99.90;;;;;;4864109;29;20021;-93
2022/12/13 04:42:10;;;;;;;11.73;8.93;;;8.50;99.90;;;;;;4843531;29;20041;-93
2022/12/13 04:44:36;;;;;;;12.07;8.70;;;8.50;99.90;;;;;;4823641;29;20041;-94
2022/12/13 04:47:03;;;;;;;13.98;9.38;;;8.40;99.90;;;;;;4845066;29;20034;-93
2022/12/13 04:49:33;;;;;;;12.32;9.40;;;8.40;99.90;;;;;;4848608;29;20060;-94
2022/12/13 04:52:01;;;;;;;14.98;10.73;;;8.40;99.90;;;;;;4848447;29;20034;-93
2022/12/13 04:54:31;;;;;;;11.40;8.95;;;8.40;99.90;;;;;;4850759;29;20030;-94
2022/12/13 04:57:01;;;;;;;14.02;9.50;;;8.40;99.90;;;;;;4838279;29;20030;-93
2022/12/13 04:59:45;;;;;;;14.73;9.60;;;8.30;99.90;;;;;;4843320;29;20049;-94
2022/12/13 05:02:31;;;;;;;13.38;9.27;;;8.30;99.90;;;;;;4857913;29;20037;-93
2022/12/13 05:04:59;;;;;;;10.43;8.95;;;8.40;99.90;;;;;;4857967;29;20112;-93
2022/12/13 05:07:34;;;;;;;16.40;10.15;;;8.40;99.90;;;;;;4838399;29;20059;-94
2022/12/13 05:10:01;;;;;;;18.95;11.32;;;8.40;99.90;;;;;;4851911;29;20038;-93
2022/12/13 05:12:28;;;;;;;13.45;10.40;;;8.40;99.90;;;;;;4849383;29;20037;-94
2022/12/13 05:14:58;;;;;;;13.98;10.48;;;8.40;99.90;;;;;;4855367;29;20058;-94
2022/12/13 05:17:32;;;;;;;19.63;9.85;;;8.50;99.90;;;;;;4852544;29;20496;-93
2022/12/13 05:20:16;;;;;;;14.00;9.07;;;8.50;99.90;;;;;;4858616;29;20045;-94
2022/12/13 05:22:50;;;;;;;17.73;10.90;;;8.50;99.90;;;;;;4850239;29;20048;-93
2022/12/13 05:25:24;;;;;;;13.10;9.82;;;8.50;99.90;;;;;;4847370;29;20066;-94
2022/12/13 05:27:57;;;;;;;12.40;9.02;;;8.40;99.90;;;;;;4852327;29;20132;-94
2022/12/13 05:32:59;;;;;;;12.60;10.10;;;8.50;99.90;;;;;;5489434;23;20061;-93
2022/12/13 05:36:13;;;;;;;16.60;10.27;;;8.50;99.90;;;;;;4859151;29;20108;-94
2022/12/13 05:38:43;;;;;;;15.65;9.77;;;8.50;99.90;;;;;;4841979;29;20042;-95
2022/12/13 05:41:26;;;;;;;14.73;11.05;;;8.50;99.90;;;;;;4835360;29;20110;-94
2022/12/13 05:43:59;;;;;;;14.95;9.80;;;8.50;99.90;;;;;;4848207;29;20480;-93
2022/12/13 05:46:32;;;;;;;12.45;10.15;;;8.50;99.90;;;;;;4846592;29;20067;-94
2022/12/13 05:57:50;;;;;;;9.88;8.85;;;8.60;99.90;;;;;;4825490;29;20110;-94
2022/12/13 06:01:07;;;;;;;15.65;9.95;;;8.60;99.90;;;;;;4827833;29;20065;-94
2022/12/13 06:03:55;;;;;;;18.77;9.88;;;8.60;99.90;;;;;;4798522;29;20058;-94
2022/12/13 06:06:23;;;;;;;19.33;9.85;;;8.60;99.90;;;;;;4772347;30;20063;-93
2022/12/13 06:08:49;;;;;;;18.17;10.43;;;8.60;99.90;;;;;;4771024;30;20096;-93
2022/12/13 06:11:16;;;;;;;13.88;10.15;;;8.60;99.90;;;;;;4771316;30;20035;-94
2022/12/13 06:13:43;;;;;;;13.35;10.57;;;8.50;99.90;;;;;;4770852;30;20039;-93
2022/12/13 06:16:12;;;;;;;15.65;10.15;;;8.60;99.90;;;;;;4771474;30;20062;-94
2022/12/13 06:18:39;;;;;;;16.55;10.00;;;8.60;99.90;;;;;;4785135;30;20051;-93
2022/12/13 06:21:06;;;;;;;14.52;9.63;;;8.60;99.90;;;;;;4780580;30;20051;-94
2022/12/13 06:23:36;;;;;;;13.90;9.07;;;8.60;99.90;;;;;;4771037;30;20094;-94
2022/12/13 06:26:05;;;;;;;14.55;9.80;;;8.70;99.90;;;;;;4771010;30;20148;-94
2022/12/13 06:28:35;;;;;;;12.82;9.40;;;8.60;99.90;;;;;;4770760;29;20059;-94
2022/12/13 06:31:32;;;;;;;13.77;9.50;;;8.60;99.90;;;;;;5173283;24;20045;31
2022/12/13 06:34:03;;;;;;;15.20;9.50;;;8.70;99.90;;;;;;4808748;29;20481;-92
2022/12/13 06:36:30;;;;;;;10.25;8.50;;;8.60;99.90;;;;;;4824961;29;20063;-91
2022/12/13 06:39:00;;;;;;;13.57;9.30;;;8.70;99.90;;;;;;4809849;29;20030;-89
2022/12/13 06:41:27;;;;;;;12.85;9.40;;;8.70;99.90;;;;;;4824900;29;20037;-89
2022/12/13 06:43:54;;;;;;;12.27;8.77;;;8.80;99.90;;;;;;4809640;29;20038;-90
2022/12/13 06:46:20;;;;;;;11.55;7.82;;;8.80;99.90;;;;;;4809791;29;20041;-90
2022/12/13 06:48:48;;;;;;;9.18;7.95;;;8.80;99.90;;;;;;4809944;29;20391;-90
2022/12/13 06:51:18;;;;;;;9.05;7.93;;;8.80;99.90;;;;;;4809813;29;20034;-89
2022/12/13 06:53:45;;;;;;;9.48;8.07;;;8.90;99.90;;;;;;4809872;29;20477;-90
2022/12/13 06:56:14;;;;;;;13.02;8.90;;;8.90;99.90;;;;;;4810188;29;20141;-91
2022/12/13 06:58:43;;;;;;;15.30;8.43;;;8.90;99.90;;;;;;4824848;29;20129;-90
2022/12/13 07:01:13;;;;;;;13.02;7.95;;;8.90;99.90;;;;;;4794753;29;20055;-90
2022/12/13 07:03:41;;;;;;;11.77;8.35;;;8.90;99.90;;;;;;4809438;29;20050;-90
2022/12/13 07:06:17;;;;;;;17.10;8.35;;;9.00;99.90;;;;;;4809586;29;20042;-92
2022/12/13 07:08:53;;;;;;;12.23;8.10;;;8.90;99.90;;;;;;4809789;29;20045;-90
2022/12/13 07:11:23;;;;;;;10.60;7.70;;;9.00;99.90;;;;;;4809571;29;20034;-90
2022/12/13 07:14:01;;;;;;;10.60;7.82;;;9.00;99.90;;;;;;4809814;29;20079;-90
2022/12/13 07:16:28;;;;;;;13.18;7.85;;;9.10;99.90;;;;;;4809246;29;20045;-91
2022/12/13 07:18:56;;;;;;;10.55;8.02;;;9.20;99.90;;;;;;4809332;29;20030;-89
2022/12/13 07:21:24;;;;;;;13.10;8.00;;;9.30;99.90;;;;;;4809266;29;20038;-89
2022/12/13 07:23:53;;;;;;;13.30;8.32;;;9.30;99.90;;;;;;4809325;29;20034;-90
2022/12/13 07:26:21;;;;;;;10.70;7.78;;;9.40;99.90;;;;;;4809676;29;20505;-91
2022/12/13 07:28:48;;;;;;;9.75;7.75;;;9.40;99.90;;;;;;4809106;29;20038;-92
2022/12/13 07:31:14;;;;;;;9.70;8.20;;;9.40;99.90;;;;;;4809385;29;20038;-93
2022/12/13 07:33:41;;;;;;;9.98;8.20;;;9.50;99.90;;;;;;4827602;29;20044;-92
2022/12/13 07:36:22;;;;;;;11.32;8.50;;;9.40;99.90;;;;;;4812085;29;20052;-92
2022/12/13 07:38:55;;;;;;;12.32;8.48;;;9.50;99.90;;;;;;4811974;29;20556;-92
2022/12/13 07:41:23;;;;;;;9.43;8.07;;;9.40;99.90;;;;;;4812017;29;20101;-90
2022/12/13 07:43:54;;;;;;;9.88;8.10;;;9.50;99.90;;;;;;4812157;29;20097;-92
2022/12/13 07:46:21;;;;;;;10.57;8.63;;;9.50;99.90;;;;;;4812109;29;20037;-92
2022/12/13 07:48:47;;;;;;;11.50;9.18;;;9.50;99.90;;;;;;4812029;29;20077;-90
2022/12/13 07:51:53;;;;;;;;;;;;;;;;;;;;;
2022/12/13 07:54:25;;;;;;;10.90;9.07;;;9.60;99.90;;;;;;4828063;29;20042;-92
2022/12/13 07:56:52;;;;;;;15.32;10.48;;;9.60;99.90;;;;;;4811594;29;20030;-91
2022/12/13 07:59:18;;;;;;;10.73;9.45;;;9.70;99.90;;;;;;4828860;29;20066;-92
2022/12/13 08:01:45;;;;;;;17.90;10.85;;;9.70;99.90;;;;;;4813482;29;20030;-91
2022/12/13 08:04:11;;;;;;;15.68;10.45;;;9.70;99.90;;;;;;4812108;29;20034;-90
2022/12/13 08:06:38;;;;;;;15.82;10.73;;;9.80;99.90;;;;;;4812024;29;20471;-91
2022/12/13 08:09:07;;;;;;;15.13;11.05;;;9.80;99.90;;;;;;4812239;29;20109;-91
2022/12/13 08:11:34;;;;;;;16.77;11.80;;;9.80;99.90;;;;;;4811650;29;20037;-91
2022/12/13 08:14:01;;;;;;;15.25;11.10;;;9.80;99.90;;;;;;4812183;29;20053;-93
2022/12/13 08:16:28;;;;;;;17.90;12.23;;;9.80;99.90;;;;;;4811697;29;20053;-90
2022/12/13 08:18:58;;;;;;;17.73;13.18;;;9.80;99.90;;;;;;4826722;29;20045;-92
2022/12/13 08:21:25;;;;;;;17.17;11.77;;;9.80;99.90;;;;;;4813062;29;20034;-92
2022/12/13 08:23:58;;;;;;;15.05;11.48;;;9.90;99.90;;;;;;4815487;29;20408;-92
2022/12/13 08:26:24;;;;;;;16.92;12.30;;;10.00;99.90;;;;;;4815225;29;20041;-91
2022/12/13 08:28:51;;;;;;;21.52;12.77;;;10.00;99.90;;;;;;4815154;29;20030;-92
2022/12/13 08:31:17;;;;;;;15.70;11.38;;;10.10;99.90;;;;;;4815190;29;20445;-91
2022/12/13 08:33:46;;;;;;;17.20;11.52;;;10.20;99.90;;;;;;4815117;29;20465;-92
2022/12/13 08:36:15;;;;;;;15.27;10.32;;;10.20;99.90;;;;;;4830141;29;20053;-91
2022/12/13 08:38:42;;;;;;;15.23;11.35;;;10.30;99.90;;;;;;4815048;29;20132;-90
2022/12/13 08:41:09;;;;;;;20.67;10.88;;;10.40;99.90;;;;;;4815236;29;20026;-90
2022/12/13 08:43:39;;;;;;;16.13;11.73;;;10.40;99.90;;;;;;4814827;29;20089;-90
2022/12/13 08:46:05;;;;;;;18.80;11.88;;;10.40;99.90;;;;;;4814941;29;20121;-89
2022/12/13 08:48:32;;;;;;;23.58;14.20;;;10.50;99.90;;;;;;4814817;29;20030;-91
2022/12/13 08:51:04;;;;;;;18.65;14.43;;;10.60;99.90;;;;;;4814769;29;20450;-90
2022/12/13 08:53:31;;;;;;;22.27;15.60;;;10.60;99.90;;;;;;4814696;29;20117;-93
2022/12/13 08:56:02;;;;;;;21.48;14.75;;;10.70;99.90;;;;;;4815220;29;20105;-90
2022/12/13 08:58:29;;;;;;;19.77;13.43;;;10.90;99.90;;;;;;4814632;29;20121;-90
2022/12/13 09:00:56;;;;;;;15.77;11.45;;;11.10;99.90;;;;;;4814664;29;20029;-90
2022/12/13 09:03:25;;;;;;;11.85;10.60;;;11.20;99.90;;;;;;4814453;29;20068;-90
2022/12/13 09:06:09;;;;;;;13.00;10.02;;;11.30;99.90;;;;;;4814699;29;20121;-90
2022/12/13 09:08:37;;;;;;;11.35;8.90;;;11.30;99.90;;;;;;4814844;29;20033;-90
2022/12/13 09:11:04;;;;;;;10.88;9.70;;;11.40;99.90;;;;;;4814531;29;20038;-91
2022/12/13 09:13:32;;;;;;;11.38;10.27;;;11.40;99.90;;;;;;4814592;29;20064;-92
2022/12/13 09:16:12;;;;;;;10.82;9.82;;;11.50;99.90;;;;;;4814339;29;20030;-92
2022/12/13 09:18:39;;;;;;;15.10;10.18;;;11.50;99.90;;;;;;4829215;29;20030;-92
2022/12/13 09:21:08;;;;;;;14.70;10.57;;;11.60;99.90;;;;;;4814133;29;20038;-91
2022/12/13 09:23:35;;;;;;;15.63;11.02;;;11.60;99.90;;;;;;4811042;29;20072;-90
2022/12/13 09:26:01;;;;;;;14.00;10.88;;;11.60;99.90;;;;;;4805121;29;20079;-91
2022/12/13 09:28:28;;;;;;;13.80;11.43;;;11.70;99.90;;;;;;4814155;29;20082;-90
2022/12/13 09:30:57;;;;;;;13.48;10.23;;;11.70;99.90;;;;;;4800305;29;20587;-90
2022/12/13 09:33:24;;;;;;;13.65;10.57;;;11.80;99.90;;;;;;4804812;29;20090;-89
2022/12/13 09:35:51;;;;;;;12.63;10.20;;;11.80;99.90;;;;;;4806084;29;20030;-92
2022/12/13 09:38:18;;;;;;;14.50;10.77;;;11.70;99.90;;;;;;4795849;29;20035;-90
2022/12/13 09:40:49;;;;;;;12.10;10.90;;;11.80;99.90;;;;;;4796131;29;20072;-90
2022/12/13 09:43:29;;;;;;;22.50;10.68;;;11.80;99.90;;;;;;4802867;29;20070;-91
2022/12/13 09:45:56;;;;;;;12.90;9.82;;;11.80;99.90;;;;;;4817521;29;20493;-91
2022/12/13 09:48:22;;;;;;;11.00;10.02;;;11.80;99.90;;;;;;4813830;29;20167;-89
2022/12/13 09:50:50;;;;;;;11.38;10.30;;;11.80;99.90;;;;;;4818315;29;20038;-91
2022/12/13 09:53:18;;;;;;;10.98;9.93;;;11.80;99.90;;;;;;4810550;29;20034;-90
2022/12/13 09:55:50;;;;;;;10.07;9.30;;;11.80;99.90;;;;;;4810750;29;20038;-90
2022/12/13 09:58:29;;;;;;;11.02;9.93;;;11.80;99.90;;;;;;4801260;29;20038;-91
2022/12/13 10:00:57;;;;;;;10.57;9.68;;;11.80;99.90;;;;;;4806292;29;20050;-91
2022/12/13 10:03:25;;;;;;;10.68;9.68;;;11.80;99.90;;;;;;4812936;29;20042;-92
2022/12/13 10:06:01;;;;;;;10.45;9.57;;;11.80;99.90;;;;;;4810367;29;20034;-91
2022/12/13 10:08:35;;;;;;;10.00;9.18;;;11.80;99.90;;;;;;4824864;29;20566;-93
2022/12/13 10:11:02;;;;;;;11.55;10.18;;;11.70;99.90;;;;;;4824310;29;20034;-91
2022/12/13 10:13:58;;;;;;;12.20;10.27;;;11.60;99.90;;;;;;4813355;29;20094;-93
2022/12/13 10:16:34;;;;;;;11.52;10.32;;;11.70;99.90;;;;;;4810332;29;20110;-93
2022/12/13 10:19:14;;;;;;;11.15;9.98;;;11.70;99.90;;;;;;4825750;29;20045;-91
2022/12/13 10:21:43;;;;;;;11.52;10.30;;;11.60;99.90;;;;;;4836082;29;20489;-90
2022/12/13 10:24:16;;;;;;;10.45;9.55;;;11.70;99.90;;;;;;4810450;29;20034;-90
2022/12/13 10:26:42;;;;;;;13.00;10.00;;;11.70;99.90;;;;;;4825419;29;20026;-92
2022/12/13 10:29:10;;;;;;;11.10;10.02;;;11.70;99.90;;;;;;4795023;29;20066;-92
2022/12/13 10:31:46;;;;;;;14.30;10.10;;;11.70;99.90;;;;;;4809585;29;20489;-93
2022/12/13 10:34:24;;;;;;;11.18;10.13;;;11.80;99.90;;;;;;4810844;29;20550;-92
2022/12/13 10:36:51;;;;;;;11.95;9.80;;;11.80;99.90;;;;;;4794997;29;20034;-93
2022/12/13 10:39:43;;;;;;;11.20;10.00;;;11.90;99.90;;;;;;4794961;29;20042;-90
2022/12/13 10:42:16;;;;;;;12.75;9.88;;;11.80;99.90;;;;;;4785722;29;20050;-91
2022/12/13 10:44:43;;;;;;;11.20;9.30;;;11.80;99.90;;;;;;4790786;29;20047;-93
2022/12/13 10:47:36;;;;;;;10.55;9.50;;;11.80;99.90;;;;;;4775558;30;20130;-91
2022/12/13 10:50:03;;;;;;;11.27;10.13;;;11.80;99.90;;;;;;4785423;29;20096;-90
2022/12/13 10:52:38;;;;;;;11.98;9.35;;;11.80;99.90;;;;;;4783264;29;20520;-92
2022/12/13 10:55:27;;;;;;;10.52;9.38;;;11.90;99.90;;;;;;4788730;29;20126;-90
2022/12/13 10:58:01;;;;;;;10.50;9.55;;;11.90;99.90;;;;;;4788017;29;20035;-93
2022/12/13 11:00:37;;;;;;;10.80;10.00;;;12.00;99.90;;;;;;4790794;29;20039;-90
2022/12/13 11:03:05;;;;;;;11.25;10.43;;;12.10;99.90;;;;;;4790762;29;20047;-92
2022/12/13 11:05:39;;;;;;;12.30;11.07;;;12.10;99.90;;;;;;4790706;29;20055;-91
2022/12/13 11:08:31;;;;;;;;;;;12.10;99.90;;;;;;4779037;29;20030;-91
2022/12/13 11:11:03;;;;;;;13.57;12.48;;;12.20;99.90;;;;;;4804242;29;20364;-94
2022/12/13 11:13:45;;;;;;;13.75;12.45;;;12.20;99.90;;;;;;4787965;29;20074;-92
2022/12/13 11:16:30;;;;;;;37.75;24.70;;;12.30;99.90;;;;;;4788453;29;20036;-93
2022/12/13 11:19:07;;;;;;;17.63;14.50;;;12.30;99.90;;;;;;4791155;29;20034;-92
2022/12/13 11:21:38;;;;;;;14.77;12.70;;;12.30;99.90;;;;;;4794286;29;20031;-91
2022/12/13 11:24:08;;;;;;;14.45;13.25;;;12.30;99.90;;;;;;4805888;29;20071;-93
2022/12/13 11:26:41;;;;;;;13.13;12.10;;;12.30;99.90;;;;;;4812342;29;20074;-92
2022/12/13 11:29:37;;;;;;;14.30;12.88;;;12.30;99.90;;;;;;4811286;29;20128;-91
2022/12/13 11:32:35;;;;;;;12.70;11.90;;;12.30;99.90;;;;;;4803150;29;20073;-92
2022/12/13 11:35:14;;;;;;;13.20;11.85;;;12.30;99.90;;;;;;4809025;29;20291;-92
2022/12/13 11:38:05;;;;;;;13.48;12.13;;;12.40;99.90;;;;;;4812201;29;20038;-93
2022/12/13 11:40:41;;;;;;;12.52;11.55;;;12.40;99.90;;;;;;4819569;29;20473;-93
2022/12/13 11:43:30;;;;;;;11.57;10.75;;;12.40;99.90;;;;;;4810230;29;20053;-92
2022/12/13 11:46:01;;;;;;;11.95;10.75;;;12.40;99.90;;;;;;4812065;29;20030;-92
2022/12/13 11:48:45;;;;;;;11.40;10.18;;;12.40;99.90;;;;;;4819341;29;20038;-92
2022/12/13 11:51:16;;;;;;;11.35;10.40;;;12.50;99.90;;;;;;4796121;29;20031;-93
2022/12/13 11:54:13;;;;;;;10.90;9.95;;;12.50;99.90;;;;;;4805425;29;20034;-93
2022/12/13 11:56:42;;;;;;;11.25;10.20;;;12.40;99.90;;;;;;4807077;29;20031;-91
2022/12/13 11:59:09;;;;;;;10.60;9.80;;;12.40;99.90;;;;;;4829551;29;20060;-91
2022/12/13 12:01:39;;;;;;;10.70;9.70;;;12.50;99.90;;;;;;4818010;29;20026;-91
2022/12/13 12:04:22;;;;;;;13.13;9.70;;;12.50;99.90;;;;;;4818069;29;20042;-93
2022/12/13 12:07:01;;;;;;;10.48;9.50;;;12.50;99.90;;;;;;4832703;29;20768;-92
2022/12/13 12:09:29;;;;;;;10.30;9.38;;;12.50;99.90;;;;;;4817676;29;20045;-91
2022/12/13 12:12:18;;;;;;;9.20;8.38;;;12.40;99.90;;;;;;4817345;29;20068;-92
2022/12/13 12:15:16;;;;;;;13.27;10.88;;;12.40;99.90;;;;;;4826211;29;20038;-92
2022/12/13 12:17:43;;;;;;;20.85;14.63;;;12.40;99.90;;;;;;4817433;29;20042;-91
2022/12/13 12:20:14;;;;;;;16.52;11.25;;;12.30;99.90;;;;;;4814814;29;20034;-90
2022/12/13 12:23:12;;;;;;;10.63;7.88;;;12.20;99.90;;;;;;4805242;29;20040;-91
2022/12/13 12:26:17;;;;;;;14.00;7.57;;;12.20;99.90;;;;;;4801591;29;20034;-91
2022/12/13 12:29:02;;;;;;;13.45;7.15;;;12.10;99.90;;;;;;4828109;29;20046;-93
2022/12/13 12:31:32;;;;;;;12.35;7.47;;;12.10;99.90;;;;;;4838746;29;20036;-91
2022/12/13 12:34:33;;;;;;;8.48;6.18;;;12.10;99.90;;;;;;4817298;29;20066;-93
2022/12/13 12:37:38;;;;;;;15.30;6.20;;;12.00;99.90;;;;;;4814749;29;20102;-92
2022/12/13 12:40:11;;;;;;;11.70;5.30;;;12.00;99.90;;;;;;4829570;29;20485;-89
2022/12/13 12:42:59;;;;;;;6.47;4.82;;;11.90;99.90;;;;;;4834550;29;20070;-93
2022/12/13 12:45:38;;;;;;;11.48;5.53;;;11.90;99.90;;;;;;4811366;29;20062;-92
2022/12/13 12:48:39;;;;;;;11.65;4.75;;;11.90;99.90;;;;;;4817519;29;20090;-91
2022/12/13 12:51:28;;;;;;;8.80;4.50;;;11.90;99.90;;;;;;4813184;29;20404;-91
2022/12/13 12:54:36;;;;;;;5.85;3.60;;;11.90;99.90;;;;;;4825017;29;20030;-91
2022/12/13 12:57:24;;;;;;;5.13;3.83;;;11.90;99.90;;;;;;4829242;29;20046;-91
2022/12/13 13:00:10;;;;;;;8.95;4.28;;;12.00;99.90;;;;;;4814134;29;20038;-92
2022/12/13 13:02:58;;;;;;;10.73;4.20;;;11.90;99.90;;;;;;4814084;29;20038;-91
2022/12/13 13:05:43;;;;;;;14.73;4.53;;;12.00;99.90;;;;;;4808286;29;20065;-90
2022/12/13 13:08:23;;;;;;;6.18;3.85;;;12.00;99.90;;;;;;4829282;29;20034;-92
2022/12/13 14:33:27;;;;;;;10.50;3.72;;;12.70;99.90;;;;;;5144745;23;20049;-93
2022/12/13 14:35:56;;;;;;;11.23;4.60;;;12.80;99.90;;;;;;4833027;29;20037;-93
2022/12/13 14:38:26;;;;;;;9.45;3.72;;;12.80;99.90;;;;;;4842291;29;20471;-92
2022/12/13 14:40:57;;;;;;;8.05;3.85;;;12.80;99.90;;;;;;4852864;29;20040;-93
2022/12/13 14:43:28;;;;;;;10.07;4.43;;;12.80;99.90;;;;;;4846448;29;20113;-94
2022/12/13 14:45:57;;;;;;;10.63;5.30;;;12.80;99.90;;;;;;4831077;29;20562;-93
2022/12/13 14:48:24;;;;;;;8.40;5.25;;;12.70;99.90;;;;;;4846297;29;20194;-92
2022/12/13 14:50:52;;;;;;;13.00;5.22;;;12.80;99.90;;;;;;4846459;29;20471;-93
2022/12/13 14:53:28;;;;;;;12.25;5.38;;;12.80;99.90;;;;;;4846071;29;20058;-92
2022/12/13 14:56:11;;;;;;;9.80;5.38;;;12.80;99.90;;;;;;4846163;29;20043;-92
2022/12/13 14:58:38;;;;;;;10.20;4.60;;;12.80;99.90;;;;;;4845828;29;20726;-92